sensor_id;sensor_type;location;lat;lon;timestamp;P1;durP1;ratioP1;P2;durP2;ratioP2
12585;SDS011;6358;50.760;0.282;2023-07-31T00:00:00;7.90;;;3.45;;
12585;SDS011;6358;50.760;0.282;2023-07-31T00:02:27;5.93;;;3.38;;
12585;SDS011;6358;50.760;0.282;2023-07-31T00:04:53;5.95;;;3.35;;
12585;SDS011;6358;50.760;0.282;2023-07-31T00:07:19;6.15;;;3.42;;
12585;SDS011;6358;50.760;0.282;2023-07-31T00:09:45;6.05;;;3.22;;
12585;SDS011;6358;50.760;0.282;2023-07-31T00:12:11;5.57;;;3.33;;
12585;SDS011;6358;50.760;0.282;2023-07-31T00:14:37;7.07;;;3.67;;
12585;SDS011;6358;50.760;0.282;2023-07-31T00:17:03;6.88;;;3.33;;
12585;SDS011;6358;50.760;0.282;2023-07-31T00:19:30;6.30;;;3.10;;
12585;SDS011;6358;50.760;0.282;2023-07-31T00:21:56;6.50;;;3.30;;
12585;SDS011;6358;50.760;0.282;2023-07-31T00:24:22;7.75;;;3.42;;
12585;SDS011;6358;50.760;0.282;2023-07-31T00:26:48;5.20;;;2.88;;
12585;SDS011;6358;50.760;0.282;2023-07-31T00:29:14;4.68;;;2.85;;
12585;SDS011;6358;50.760;0.282;2023-07-31T00:31:40;5.88;;;3.22;;
12585;SDS011;6358;50.760;0.282;2023-07-31T00:34:06;5.75;;;3.10;;
12585;SDS011;6358;50.760;0.282;2023-07-31T00:36:32;4.82;;;2.92;;
12585;SDS011;6358;50.760;0.282;2023-07-31T00:38:58;5.38;;;2.88;;
12585;SDS011;6358;50.760;0.282;2023-07-31T00:41:24;5.22;;;3.10;;
12585;SDS011;6358;50.760;0.282;2023-07-31T00:43:50;6.63;;;3.35;;
12585;SDS011;6358;50.760;0.282;2023-07-31T00:46:16;5.80;;;3.25;;
12585;SDS011;6358;50.760;0.282;2023-07-31T00:48:42;6.25;;;3.33;;
12585;SDS011;6358;50.760;0.282;2023-07-31T00:51:09;6.45;;;3.20;;
12585;SDS011;6358;50.760;0.282;2023-07-31T00:53:35;4.03;;;2.88;;
12585;SDS011;6358;50.760;0.282;2023-07-31T00:56:01;5.07;;;3.30;;
12585;SDS011;6358;50.760;0.282;2023-07-31T00:58:27;5.20;;;3.00;;
12585;SDS011;6358;50.760;0.282;2023-07-31T01:00:53;6.47;;;3.45;;
12585;SDS011;6358;50.760;0.282;2023-07-31T01:03:19;4.45;;;2.83;;
12585;SDS011;6358;50.760;0.282;2023-07-31T01:08:29;3.70;;;2.58;;
12585;SDS011;6358;50.760;0.282;2023-07-31T01:11:00;4.15;;;2.85;;
12585;SDS011;6358;50.760;0.282;2023-07-31T01:13:28;4.70;;;2.92;;
12585;SDS011;6358;50.760;0.282;2023-07-31T01:15:54;4.53;;;2.60;;
12585;SDS011;6358;50.760;0.282;2023-07-31T01:18:20;4.15;;;2.60;;
12585;SDS011;6358;50.760;0.282;2023-07-31T01:20:47;5.15;;;3.05;;
12585;SDS011;6358;50.760;0.282;2023-07-31T01:23:44;5.30;;;2.95;;
12585;SDS011;6358;50.760;0.282;2023-07-31T01:26:19;6.45;;;2.80;;
12585;SDS011;6358;50.760;0.282;2023-07-31T01:28:50;4.75;;;2.75;;
12585;SDS011;6358;50.760;0.282;2023-07-31T01:31:20;5.47;;;2.58;;
12585;SDS011;6358;50.760;0.282;2023-07-31T01:33:46;3.83;;;2.50;;
12585;SDS011;6358;50.760;0.282;2023-07-31T01:36:13;5.10;;;2.75;;
12585;SDS011;6358;50.760;0.282;2023-07-31T01:38:40;3.72;;;2.47;;
12585;SDS011;6358;50.760;0.282;2023-07-31T01:41:07;5.90;;;2.55;;
12585;SDS011;6358;50.760;0.282;2023-07-31T01:43:33;4.63;;;2.50;;
12585;SDS011;6358;50.760;0.282;2023-07-31T01:45:59;4.82;;;2.83;;
12585;SDS011;6358;50.760;0.282;2023-07-31T01:48:25;4.97;;;2.80;;
12585;SDS011;6358;50.760;0.282;2023-07-31T01:50:51;3.33;;;2.40;;
12585;SDS011;6358;50.760;0.282;2023-07-31T01:53:17;4.50;;;2.53;;
12585;SDS011;6358;50.760;0.282;2023-07-31T01:55:43;4.40;;;2.70;;
12585;SDS011;6358;50.760;0.282;2023-07-31T01:58:09;4.03;;;2.70;;
12585;SDS011;6358;50.760;0.282;2023-07-31T02:00:35;4.22;;;2.63;;
12585;SDS011;6358;50.760;0.282;2023-07-31T02:03:01;4.78;;;2.65;;
12585;SDS011;6358;50.760;0.282;2023-07-31T02:05:28;3.47;;;2.47;;
12585;SDS011;6358;50.760;0.282;2023-07-31T02:07:54;5.15;;;2.58;;
12585;SDS011;6358;50.760;0.282;2023-07-31T02:10:20;6.45;;;2.97;;
12585;SDS011;6358;50.760;0.282;2023-07-31T02:12:46;4.22;;;2.70;;
12585;SDS011;6358;50.760;0.282;2023-07-31T02:15:12;4.00;;;2.67;;
12585;SDS011;6358;50.760;0.282;2023-07-31T02:17:38;4.72;;;2.60;;
12585;SDS011;6358;50.760;0.282;2023-07-31T02:20:04;6.13;;;2.90;;
12585;SDS011;6358;50.760;0.282;2023-07-31T02:22:30;4.32;;;2.30;;
12585;SDS011;6358;50.760;0.282;2023-07-31T02:24:56;4.35;;;2.60;;
12585;SDS011;6358;50.760;0.282;2023-07-31T02:27:23;3.93;;;2.70;;
12585;SDS011;6358;50.760;0.282;2023-07-31T02:29:52;6.55;;;2.90;;
12585;SDS011;6358;50.760;0.282;2023-07-31T02:32:18;5.10;;;2.60;;
12585;SDS011;6358;50.760;0.282;2023-07-31T02:34:44;5.68;;;2.80;;
12585;SDS011;6358;50.760;0.282;2023-07-31T02:37:10;5.80;;;3.22;;
12585;SDS011;6358;50.760;0.282;2023-07-31T02:39:36;3.95;;;2.70;;
12585;SDS011;6358;50.760;0.282;2023-07-31T02:42:03;5.40;;;3.05;;
12585;SDS011;6358;50.760;0.282;2023-07-31T02:44:29;6.10;;;2.80;;
12585;SDS011;6358;50.760;0.282;2023-07-31T02:46:56;5.88;;;2.85;;
12585;SDS011;6358;50.760;0.282;2023-07-31T02:49:22;4.20;;;2.35;;
12585;SDS011;6358;50.760;0.282;2023-07-31T02:51:48;5.80;;;2.80;;
12585;SDS011;6358;50.760;0.282;2023-07-31T02:54:14;4.50;;;2.60;;
12585;SDS011;6358;50.760;0.282;2023-07-31T02:56:40;6.45;;;2.85;;
12585;SDS011;6358;50.760;0.282;2023-07-31T02:59:06;4.70;;;2.75;;
12585;SDS011;6358;50.760;0.282;2023-07-31T03:01:32;5.07;;;2.60;;
12585;SDS011;6358;50.760;0.282;2023-07-31T03:03:58;5.63;;;2.83;;
12585;SDS011;6358;50.760;0.282;2023-07-31T03:06:25;5.20;;;2.63;;
12585;SDS011;6358;50.760;0.282;2023-07-31T03:08:52;4.35;;;2.72;;
12585;SDS011;6358;50.760;0.282;2023-07-31T03:11:18;4.93;;;2.70;;
12585;SDS011;6358;50.760;0.282;2023-07-31T03:13:44;5.78;;;2.63;;
12585;SDS011;6358;50.760;0.282;2023-07-31T03:16:10;4.93;;;2.47;;
12585;SDS011;6358;50.760;0.282;2023-07-31T03:18:36;4.80;;;2.85;;
12585;SDS011;6358;50.760;0.282;2023-07-31T03:21:02;4.70;;;2.50;;
12585;SDS011;6358;50.760;0.282;2023-07-31T03:23:28;5.60;;;2.63;;
12585;SDS011;6358;50.760;0.282;2023-07-31T03:25:55;5.68;;;2.97;;
12585;SDS011;6358;50.760;0.282;2023-07-31T03:28:21;3.35;;;2.42;;
12585;SDS011;6358;50.760;0.282;2023-07-31T03:30:47;4.93;;;2.65;;
12585;SDS011;6358;50.760;0.282;2023-07-31T03:33:13;4.82;;;2.45;;
12585;SDS011;6358;50.760;0.282;2023-07-31T03:35:39;5.38;;;2.65;;
12585;SDS011;6358;50.760;0.282;2023-07-31T03:38:05;4.65;;;2.67;;
12585;SDS011;6358;50.760;0.282;2023-07-31T03:40:31;4.57;;;2.50;;
12585;SDS011;6358;50.760;0.282;2023-07-31T03:42:58;3.30;;;2.45;;
12585;SDS011;6358;50.760;0.282;2023-07-31T03:45:24;4.70;;;2.47;;
12585;SDS011;6358;50.760;0.282;2023-07-31T03:47:50;5.10;;;2.78;;
12585;SDS011;6358;50.760;0.282;2023-07-31T03:50:16;4.13;;;2.42;;
12585;SDS011;6358;50.760;0.282;2023-07-31T03:52:42;3.85;;;2.25;;
12585;SDS011;6358;50.760;0.282;2023-07-31T03:55:08;5.75;;;2.40;;
12585;SDS011;6358;50.760;0.282;2023-07-31T03:57:34;4.00;;;2.50;;
12585;SDS011;6358;50.760;0.282;2023-07-31T04:00:00;2.97;;;2.23;;
12585;SDS011;6358;50.760;0.282;2023-07-31T04:02:26;3.70;;;2.28;;
12585;SDS011;6358;50.760;0.282;2023-07-31T04:04:52;4.22;;;2.40;;
12585;SDS011;6358;50.760;0.282;2023-07-31T04:07:19;2.93;;;2.20;;
12585;SDS011;6358;50.760;0.282;2023-07-31T04:09:45;3.88;;;2.40;;
12585;SDS011;6358;50.760;0.282;2023-07-31T04:12:11;4.00;;;2.20;;
12585;SDS011;6358;50.760;0.282;2023-07-31T04:14:37;2.78;;;1.90;;
12585;SDS011;6358;50.760;0.282;2023-07-31T04:17:03;2.80;;;2.10;;
12585;SDS011;6358;50.760;0.282;2023-07-31T04:19:29;3.10;;;2.10;;
12585;SDS011;6358;50.760;0.282;2023-07-31T04:21:55;5.07;;;2.28;;
12585;SDS011;6358;50.760;0.282;2023-07-31T04:24:21;2.87;;;1.87;;
12585;SDS011;6358;50.760;0.282;2023-07-31T04:26:52;2.90;;;1.90;;
12585;SDS011;6358;50.760;0.282;2023-07-31T04:29:19;2.67;;;1.90;;
12585;SDS011;6358;50.760;0.282;2023-07-31T04:31:45;4.13;;;2.10;;
12585;SDS011;6358;50.760;0.282;2023-07-31T04:34:11;3.27;;;1.70;;
12585;SDS011;6358;50.760;0.282;2023-07-31T04:36:37;3.83;;;2.10;;
12585;SDS011;6358;50.760;0.282;2023-07-31T04:39:03;5.10;;;2.27;;
12585;SDS011;6358;50.760;0.282;2023-07-31T04:41:29;3.20;;;1.95;;
12585;SDS011;6358;50.760;0.282;2023-07-31T04:43:55;3.30;;;2.00;;
12585;SDS011;6358;50.760;0.282;2023-07-31T04:46:22;2.60;;;2.03;;
12585;SDS011;6358;50.760;0.282;2023-07-31T04:48:48;2.55;;;1.90;;
12585;SDS011;6358;50.760;0.282;2023-07-31T04:51:14;3.55;;;1.70;;
12585;SDS011;6358;50.760;0.282;2023-07-31T04:53:40;3.75;;;2.13;;
12585;SDS011;6358;50.760;0.282;2023-07-31T04:56:06;3.00;;;1.92;;
12585;SDS011;6358;50.760;0.282;2023-07-31T04:58:32;2.70;;;1.73;;
12585;SDS011;6358;50.760;0.282;2023-07-31T05:00:58;2.38;;;1.80;;
12585;SDS011;6358;50.760;0.282;2023-07-31T05:03:24;3.50;;;2.07;;
12585;SDS011;6358;50.760;0.282;2023-07-31T05:05:50;3.50;;;2.00;;
12585;SDS011;6358;50.760;0.282;2023-07-31T05:08:16;3.07;;;1.90;;
12585;SDS011;6358;50.760;0.282;2023-07-31T05:10:43;2.93;;;1.90;;
12585;SDS011;6358;50.760;0.282;2023-07-31T05:13:09;3.17;;;2.00;;
12585;SDS011;6358;50.760;0.282;2023-07-31T05:15:35;3.85;;;2.10;;
12585;SDS011;6358;50.760;0.282;2023-07-31T05:18:01;3.20;;;2.03;;
12585;SDS011;6358;50.760;0.282;2023-07-31T05:20:27;2.83;;;1.80;;
12585;SDS011;6358;50.760;0.282;2023-07-31T05:22:53;3.95;;;2.22;;
12585;SDS011;6358;50.760;0.282;2023-07-31T05:25:19;2.70;;;1.77;;
12585;SDS011;6358;50.760;0.282;2023-07-31T05:27:45;2.05;;;1.65;;
12585;SDS011;6358;50.760;0.282;2023-07-31T05:30:12;2.53;;;1.80;;
12585;SDS011;6358;50.760;0.282;2023-07-31T05:32:38;2.60;;;1.67;;
12585;SDS011;6358;50.760;0.282;2023-07-31T05:35:04;2.67;;;2.00;;
12585;SDS011;6358;50.760;0.282;2023-07-31T05:37:30;2.53;;;1.90;;
12585;SDS011;6358;50.760;0.282;2023-07-31T05:39:56;1.95;;;1.75;;
12585;SDS011;6358;50.760;0.282;2023-07-31T05:42:22;3.03;;;2.00;;
12585;SDS011;6358;50.760;0.282;2023-07-31T05:44:50;2.65;;;1.60;;
12585;SDS011;6358;50.760;0.282;2023-07-31T05:47:16;3.33;;;1.85;;
12585;SDS011;6358;50.760;0.282;2023-07-31T05:49:42;2.95;;;2.00;;
12585;SDS011;6358;50.760;0.282;2023-07-31T05:52:08;3.28;;;1.88;;
12585;SDS011;6358;50.760;0.282;2023-07-31T05:54:34;2.17;;;1.58;;
12585;SDS011;6358;50.760;0.282;2023-07-31T05:57:00;2.45;;;2.03;;
12585;SDS011;6358;50.760;0.282;2023-07-31T05:59:26;3.78;;;2.00;;
12585;SDS011;6358;50.760;0.282;2023-07-31T06:01:52;3.47;;;1.98;;
12585;SDS011;6358;50.760;0.282;2023-07-31T06:04:18;2.83;;;1.85;;
12585;SDS011;6358;50.760;0.282;2023-07-31T06:06:45;3.38;;;1.85;;
12585;SDS011;6358;50.760;0.282;2023-07-31T06:09:11;3.58;;;1.83;;
12585;SDS011;6358;50.760;0.282;2023-07-31T06:11:37;2.13;;;1.40;;
12585;SDS011;6358;50.760;0.282;2023-07-31T06:14:03;3.40;;;1.80;;
12585;SDS011;6358;50.760;0.282;2023-07-31T06:16:29;3.75;;;1.90;;
12585;SDS011;6358;50.760;0.282;2023-07-31T06:18:55;3.00;;;1.80;;
12585;SDS011;6358;50.760;0.282;2023-07-31T06:21:21;3.58;;;1.88;;
12585;SDS011;6358;50.760;0.282;2023-07-31T06:23:47;3.22;;;1.70;;
12585;SDS011;6358;50.760;0.282;2023-07-31T06:26:13;3.03;;;1.85;;
12585;SDS011;6358;50.760;0.282;2023-07-31T06:28:39;2.50;;;1.90;;
12585;SDS011;6358;50.760;0.282;2023-07-31T06:31:05;3.45;;;1.67;;
12585;SDS011;6358;50.760;0.282;2023-07-31T06:33:32;4.45;;;1.92;;
12585;SDS011;6358;50.760;0.282;2023-07-31T06:35:58;4.00;;;1.85;;
12585;SDS011;6358;50.760;0.282;2023-07-31T06:38:25;2.72;;;1.65;;
12585;SDS011;6358;50.760;0.282;2023-07-31T06:40:52;5.43;;;1.80;;
12585;SDS011;6358;50.760;0.282;2023-07-31T06:43:18;3.00;;;1.83;;
12585;SDS011;6358;50.760;0.282;2023-07-31T06:45:44;2.97;;;1.63;;
12585;SDS011;6358;50.760;0.282;2023-07-31T06:48:11;4.55;;;2.30;;
12585;SDS011;6358;50.760;0.282;2023-07-31T06:50:37;2.25;;;1.70;;
12585;SDS011;6358;50.760;0.282;2023-07-31T06:53:03;2.92;;;1.80;;
12585;SDS011;6358;50.760;0.282;2023-07-31T06:55:30;3.10;;;2.08;;
12585;SDS011;6358;50.760;0.282;2023-07-31T06:57:56;3.40;;;1.80;;
12585;SDS011;6358;50.760;0.282;2023-07-31T07:00:23;3.10;;;1.90;;
12585;SDS011;6358;50.760;0.282;2023-07-31T07:02:49;3.17;;;1.60;;
12585;SDS011;6358;50.760;0.282;2023-07-31T07:05:16;4.07;;;2.25;;
12585;SDS011;6358;50.760;0.282;2023-07-31T07:07:42;3.50;;;1.98;;
12585;SDS011;6358;50.760;0.282;2023-07-31T07:10:09;2.58;;;1.73;;
12585;SDS011;6358;50.760;0.282;2023-07-31T07:12:35;3.20;;;2.10;;
12585;SDS011;6358;50.760;0.282;2023-07-31T07:15:02;3.33;;;1.90;;
12585;SDS011;6358;50.760;0.282;2023-07-31T07:17:28;2.63;;;1.77;;
12585;SDS011;6358;50.760;0.282;2023-07-31T07:19:58;1.90;;;1.58;;
12585;SDS011;6358;50.760;0.282;2023-07-31T07:22:24;3.13;;;1.77;;
12585;SDS011;6358;50.760;0.282;2023-07-31T07:24:51;3.58;;;1.83;;
12585;SDS011;6358;50.760;0.282;2023-07-31T07:27:17;2.72;;;1.75;;
12585;SDS011;6358;50.760;0.282;2023-07-31T07:29:43;2.42;;;1.70;;
12585;SDS011;6358;50.760;0.282;2023-07-31T07:32:09;2.90;;;1.83;;
12585;SDS011;6358;50.760;0.282;2023-07-31T07:34:37;5.30;;;2.08;;
12585;SDS011;6358;50.760;0.282;2023-07-31T07:37:03;3.22;;;1.98;;
12585;SDS011;6358;50.760;0.282;2023-07-31T07:39:29;5.77;;;2.10;;
12585;SDS011;6358;50.760;0.282;2023-07-31T07:41:55;5.68;;;2.10;;
12585;SDS011;6358;50.760;0.282;2023-07-31T07:44:22;3.50;;;2.17;;
12585;SDS011;6358;50.760;0.282;2023-07-31T07:46:48;5.43;;;1.70;;
12585;SDS011;6358;50.760;0.282;2023-07-31T07:49:14;3.08;;;1.92;;
12585;SDS011;6358;50.760;0.282;2023-07-31T07:51:40;4.95;;;2.45;;
12585;SDS011;6358;50.760;0.282;2023-07-31T07:54:06;9.82;;;3.55;;
12585;SDS011;6358;50.760;0.282;2023-07-31T07:56:32;10.88;;;5.30;;
12585;SDS011;6358;50.760;0.282;2023-07-31T07:58:58;11.90;;;5.55;;
12585;SDS011;6358;50.760;0.282;2023-07-31T08:01:24;13.80;;;6.57;;
12585;SDS011;6358;50.760;0.282;2023-07-31T08:03:51;14.20;;;6.38;;
12585;SDS011;6358;50.760;0.282;2023-07-31T08:06:17;12.07;;;6.80;;
12585;SDS011;6358;50.760;0.282;2023-07-31T08:08:43;10.60;;;5.43;;
12585;SDS011;6358;50.760;0.282;2023-07-31T08:11:09;10.82;;;6.15;;
12585;SDS011;6358;50.760;0.282;2023-07-31T08:13:35;11.80;;;5.55;;
12585;SDS011;6358;50.760;0.282;2023-07-31T08:16:04;12.60;;;5.32;;
12585;SDS011;6358;50.760;0.282;2023-07-31T08:18:31;10.50;;;5.35;;
12585;SDS011;6358;50.760;0.282;2023-07-31T08:20:57;10.45;;;5.38;;
12585;SDS011;6358;50.760;0.282;2023-07-31T08:23:24;8.73;;;4.97;;
12585;SDS011;6358;50.760;0.282;2023-07-31T08:25:50;13.52;;;4.93;;
12585;SDS011;6358;50.760;0.282;2023-07-31T08:28:16;8.90;;;5.50;;
12585;SDS011;6358;50.760;0.282;2023-07-31T08:30:42;8.88;;;4.78;;
12585;SDS011;6358;50.760;0.282;2023-07-31T08:33:08;8.75;;;4.63;;
12585;SDS011;6358;50.760;0.282;2023-07-31T08:35:34;7.55;;;4.25;;
12585;SDS011;6358;50.760;0.282;2023-07-31T08:38:00;9.48;;;4.82;;
12585;SDS011;6358;50.760;0.282;2023-07-31T08:40:26;8.73;;;4.45;;
12585;SDS011;6358;50.760;0.282;2023-07-31T08:42:53;7.57;;;3.95;;
12585;SDS011;6358;50.760;0.282;2023-07-31T08:45:21;7.60;;;4.15;;
12585;SDS011;6358;50.760;0.282;2023-07-31T08:47:49;7.60;;;3.78;;
12585;SDS011;6358;50.760;0.282;2023-07-31T08:50:16;5.63;;;3.50;;
12585;SDS011;6358;50.760;0.282;2023-07-31T08:52:42;6.22;;;3.53;;
12585;SDS011;6358;50.760;0.282;2023-07-31T08:55:08;7.68;;;3.60;;
12585;SDS011;6358;50.760;0.282;2023-07-31T08:57:36;6.50;;;3.58;;
12585;SDS011;6358;50.760;0.282;2023-07-31T09:00:02;5.40;;;2.90;;
12585;SDS011;6358;50.760;0.282;2023-07-31T09:03:16;6.43;;;2.63;;
12585;SDS011;6358;50.760;0.282;2023-07-31T09:05:16;4.60;;;2.60;;
12585;SDS011;6358;50.760;0.282;2023-07-31T09:07:44;4.35;;;2.90;;
12585;SDS011;6358;50.760;0.282;2023-07-31T09:10:12;4.68;;;2.65;;
12585;SDS011;6358;50.760;0.282;2023-07-31T09:12:38;4.88;;;2.75;;
12585;SDS011;6358;50.760;0.282;2023-07-31T09:15:05;4.68;;;2.50;;
12585;SDS011;6358;50.760;0.282;2023-07-31T09:17:32;5.10;;;2.72;;
12585;SDS011;6358;50.760;0.282;2023-07-31T09:20:12;3.65;;;2.50;;
12585;SDS011;6358;50.760;0.282;2023-07-31T09:22:38;6.40;;;2.55;;
12585;SDS011;6358;50.760;0.282;2023-07-31T09:25:18;3.37;;;2.30;;
12585;SDS011;6358;50.760;0.282;2023-07-31T09:27:54;4.20;;;2.42;;
12585;SDS011;6358;50.760;0.282;2023-07-31T09:30:21;3.60;;;2.08;;
12585;SDS011;6358;50.760;0.282;2023-07-31T09:32:48;4.78;;;2.35;;
12585;SDS011;6358;50.760;0.282;2023-07-31T09:35:30;4.03;;;2.33;;
12585;SDS011;6358;50.760;0.282;2023-07-31T09:38:00;3.83;;;2.20;;
12585;SDS011;6358;50.760;0.282;2023-07-31T09:40:33;3.55;;;2.10;;
12585;SDS011;6358;50.760;0.282;2023-07-31T09:43:32;2.63;;;1.70;;
12585;SDS011;6358;50.760;0.282;2023-07-31T09:45:55;3.20;;;1.85;;
12585;SDS011;6358;50.760;0.282;2023-07-31T09:48:23;3.03;;;2.10;;
12585;SDS011;6358;50.760;0.282;2023-07-31T09:50:52;3.60;;;1.70;;
12585;SDS011;6358;50.760;0.282;2023-07-31T09:53:20;2.33;;;1.67;;
12585;SDS011;6358;50.760;0.282;2023-07-31T09:55:53;3.28;;;1.98;;
12585;SDS011;6358;50.760;0.282;2023-07-31T09:58:19;3.97;;;1.88;;
12585;SDS011;6358;50.760;0.282;2023-07-31T10:00:45;2.20;;;1.80;;
12585;SDS011;6358;50.760;0.282;2023-07-31T10:03:12;2.42;;;1.48;;
12585;SDS011;6358;50.760;0.282;2023-07-31T10:05:40;4.25;;;2.00;;
12585;SDS011;6358;50.760;0.282;2023-07-31T10:08:07;1.83;;;1.65;;
12585;SDS011;6358;50.760;0.282;2023-07-31T10:10:35;2.83;;;1.63;;
12585;SDS011;6358;50.760;0.282;2023-07-31T10:13:02;3.45;;;2.08;;
12585;SDS011;6358;50.760;0.282;2023-07-31T10:15:28;7.10;;;2.92;;
12585;SDS011;6358;50.760;0.282;2023-07-31T10:17:55;6.15;;;3.65;;
12585;SDS011;6358;50.760;0.282;2023-07-31T10:20:22;5.90;;;3.08;;
12585;SDS011;6358;50.760;0.282;2023-07-31T10:22:49;5.90;;;3.08;;
12585;SDS011;6358;50.760;0.282;2023-07-31T10:25:16;7.65;;;3.17;;
12585;SDS011;6358;50.760;0.282;2023-07-31T10:27:44;6.38;;;2.90;;
12585;SDS011;6358;50.760;0.282;2023-07-31T10:30:14;6.63;;;2.92;;
12585;SDS011;6358;50.760;0.282;2023-07-31T10:32:41;4.32;;;2.70;;
12585;SDS011;6358;50.760;0.282;2023-07-31T10:35:07;4.72;;;2.75;;
12585;SDS011;6358;50.760;0.282;2023-07-31T10:37:38;6.15;;;3.20;;
12585;SDS011;6358;50.760;0.282;2023-07-31T10:42:50;5.18;;;2.75;;
12585;SDS011;6358;50.760;0.282;2023-07-31T10:45:24;4.82;;;2.40;;
12585;SDS011;6358;50.760;0.282;2023-07-31T10:48:00;3.75;;;2.50;;
12585;SDS011;6358;50.760;0.282;2023-07-31T10:50:27;4.80;;;2.50;;
12585;SDS011;6358;50.760;0.282;2023-07-31T10:52:54;6.82;;;2.67;;
12585;SDS011;6358;50.760;0.282;2023-07-31T10:55:39;4.78;;;2.60;;
12585;SDS011;6358;50.760;0.282;2023-07-31T10:58:07;4.60;;;2.33;;
12585;SDS011;6358;50.760;0.282;2023-07-31T11:00:33;4.25;;;2.20;;
12585;SDS011;6358;50.760;0.282;2023-07-31T11:03:00;3.92;;;2.33;;
12585;SDS011;6358;50.760;0.282;2023-07-31T11:08:15;4.03;;;2.03;;
12585;SDS011;6358;50.760;0.282;2023-07-31T11:10:41;3.78;;;2.00;;
12585;SDS011;6358;50.760;0.282;2023-07-31T11:13:08;4.22;;;1.83;;
12585;SDS011;6358;50.760;0.282;2023-07-31T11:15:34;3.75;;;1.60;;
12585;SDS011;6358;50.760;0.282;2023-07-31T11:18:00;4.80;;;1.90;;
12585;SDS011;6358;50.760;0.282;2023-07-31T11:20:31;2.63;;;1.80;;
12585;SDS011;6358;50.760;0.282;2023-07-31T11:23:05;2.67;;;1.48;;
12585;SDS011;6358;50.760;0.282;2023-07-31T11:25:31;2.25;;;1.60;;
12585;SDS011;6358;50.760;0.282;2023-07-31T11:28:02;3.38;;;1.77;;
12585;SDS011;6358;50.760;0.282;2023-07-31T11:30:28;2.92;;;1.50;;
12585;SDS011;6358;50.760;0.282;2023-07-31T11:32:55;2.53;;;1.38;;
12585;SDS011;6358;50.760;0.282;2023-07-31T11:35:21;4.45;;;1.45;;
12585;SDS011;6358;50.760;0.282;2023-07-31T11:37:47;2.30;;;1.52;;
12585;SDS011;6358;50.760;0.282;2023-07-31T11:40:14;2.60;;;1.58;;
12585;SDS011;6358;50.760;0.282;2023-07-31T11:42:40;2.15;;;1.52;;
12585;SDS011;6358;50.760;0.282;2023-07-31T11:45:07;2.72;;;1.25;;
12585;SDS011;6358;50.760;0.282;2023-07-31T11:47:34;2.72;;;1.50;;
12585;SDS011;6358;50.760;0.282;2023-07-31T11:50:01;1.98;;;1.30;;
12585;SDS011;6358;50.760;0.282;2023-07-31T11:52:31;3.05;;;1.40;;
12585;SDS011;6358;50.760;0.282;2023-07-31T11:54:57;2.95;;;1.40;;
12585;SDS011;6358;50.760;0.282;2023-07-31T11:57:24;1.42;;;1.02;;
12585;SDS011;6358;50.760;0.282;2023-07-31T11:59:50;2.58;;;1.10;;
12585;SDS011;6358;50.760;0.282;2023-07-31T12:02:17;3.10;;;1.30;;
12585;SDS011;6358;50.760;0.282;2023-07-31T12:04:45;1.70;;;0.98;;
12585;SDS011;6358;50.760;0.282;2023-07-31T12:07:11;2.00;;;1.13;;
12585;SDS011;6358;50.760;0.282;2023-07-31T12:09:37;1.48;;;1.10;;
12585;SDS011;6358;50.760;0.282;2023-07-31T12:12:07;1.85;;;0.93;;
12585;SDS011;6358;50.760;0.282;2023-07-31T12:14:34;1.52;;;1.15;;
12585;SDS011;6358;50.760;0.282;2023-07-31T12:17:03;1.85;;;1.10;;
12585;SDS011;6358;50.760;0.282;2023-07-31T12:19:30;2.72;;;1.10;;
12585;SDS011;6358;50.760;0.282;2023-07-31T12:21:56;2.08;;;1.10;;
12585;SDS011;6358;50.760;0.282;2023-07-31T12:24:24;1.23;;;0.90;;
12585;SDS011;6358;50.760;0.282;2023-07-31T12:26:50;1.10;;;0.88;;
12585;SDS011;6358;50.760;0.282;2023-07-31T12:29:17;1.33;;;1.10;;
12585;SDS011;6358;50.760;0.282;2023-07-31T12:31:43;1.75;;;1.00;;
12585;SDS011;6358;50.760;0.282;2023-07-31T12:34:16;2.25;;;1.10;;
12585;SDS011;6358;50.760;0.282;2023-07-31T12:36:43;1.40;;;1.00;;
12585;SDS011;6358;50.760;0.282;2023-07-31T12:39:09;1.00;;;0.90;;
12585;SDS011;6358;50.760;0.282;2023-07-31T12:41:35;1.02;;;0.85;;
12585;SDS011;6358;50.760;0.282;2023-07-31T12:44:02;1.95;;;1.00;;
12585;SDS011;6358;50.760;0.282;2023-07-31T12:46:28;1.90;;;1.10;;
12585;SDS011;6358;50.760;0.282;2023-07-31T12:48:54;1.63;;;0.93;;
12585;SDS011;6358;50.760;0.282;2023-07-31T12:51:20;1.90;;;1.02;;
12585;SDS011;6358;50.760;0.282;2023-07-31T12:53:47;1.45;;;0.85;;
12585;SDS011;6358;50.760;0.282;2023-07-31T12:56:13;1.38;;;0.80;;
12585;SDS011;6358;50.760;0.282;2023-07-31T12:58:39;4.28;;;1.10;;
12585;SDS011;6358;50.760;0.282;2023-07-31T13:01:05;1.67;;;1.02;;
12585;SDS011;6358;50.760;0.282;2023-07-31T13:03:31;1.27;;;0.90;;
12585;SDS011;6358;50.760;0.282;2023-07-31T13:05:57;1.15;;;0.85;;
12585;SDS011;6358;50.760;0.282;2023-07-31T13:08:23;1.00;;;0.80;;
12585;SDS011;6358;50.760;0.282;2023-07-31T13:10:50;1.20;;;1.00;;
12585;SDS011;6358;50.760;0.282;2023-07-31T13:13:16;0.98;;;0.88;;
12585;SDS011;6358;50.760;0.282;2023-07-31T13:15:43;1.00;;;0.90;;
12585;SDS011;6358;50.760;0.282;2023-07-31T13:18:10;2.20;;;1.15;;
12585;SDS011;6358;50.760;0.282;2023-07-31T13:20:36;1.13;;;1.00;;
12585;SDS011;6358;50.760;0.282;2023-07-31T13:23:02;2.30;;;1.08;;
12585;SDS011;6358;50.760;0.282;2023-07-31T13:25:28;2.22;;;1.08;;
12585;SDS011;6358;50.760;0.282;2023-07-31T13:27:55;1.02;;;0.80;;
12585;SDS011;6358;50.760;0.282;2023-07-31T13:30:21;1.15;;;0.90;;
12585;SDS011;6358;50.760;0.282;2023-07-31T13:32:47;1.45;;;0.90;;
12585;SDS011;6358;50.760;0.282;2023-07-31T13:35:13;1.15;;;0.98;;
12585;SDS011;6358;50.760;0.282;2023-07-31T13:37:39;1.60;;;0.90;;
12585;SDS011;6358;50.760;0.282;2023-07-31T13:40:05;0.80;;;0.70;;
12585;SDS011;6358;50.760;0.282;2023-07-31T13:42:32;1.92;;;1.00;;
12585;SDS011;6358;50.760;0.282;2023-07-31T13:44:58;1.50;;;1.10;;
12585;SDS011;6358;50.760;0.282;2023-07-31T13:47:24;1.50;;;0.82;;
12585;SDS011;6358;50.760;0.282;2023-07-31T13:49:50;2.13;;;1.00;;
12585;SDS011;6358;50.760;0.282;2023-07-31T13:52:16;1.88;;;0.80;;
12585;SDS011;6358;50.760;0.282;2023-07-31T13:54:42;0.98;;;0.70;;
12585;SDS011;6358;50.760;0.282;2023-07-31T13:57:08;1.85;;;0.82;;
12585;SDS011;6358;50.760;0.282;2023-07-31T13:59:35;2.67;;;0.95;;
12585;SDS011;6358;50.760;0.282;2023-07-31T14:02:02;1.95;;;0.93;;
12585;SDS011;6358;50.760;0.282;2023-07-31T14:04:28;2.33;;;1.00;;
12585;SDS011;6358;50.760;0.282;2023-07-31T14:06:55;2.67;;;1.17;;
12585;SDS011;6358;50.760;0.282;2023-07-31T14:09:21;2.80;;;1.02;;
12585;SDS011;6358;50.760;0.282;2023-07-31T14:11:47;2.42;;;1.08;;
12585;SDS011;6358;50.760;0.282;2023-07-31T14:14:14;1.10;;;1.00;;
12585;SDS011;6358;50.760;0.282;2023-07-31T14:16:40;0.70;;;0.60;;
12585;SDS011;6358;50.760;0.282;2023-07-31T14:19:06;0.95;;;0.65;;
12585;SDS011;6358;50.760;0.282;2023-07-31T14:21:33;1.77;;;0.88;;
12585;SDS011;6358;50.760;0.282;2023-07-31T14:23:59;1.58;;;0.93;;
12585;SDS011;6358;50.760;0.282;2023-07-31T14:26:25;1.05;;;0.93;;
12585;SDS011;6358;50.760;0.282;2023-07-31T14:28:51;0.88;;;0.80;;
12585;SDS011;6358;50.760;0.282;2023-07-31T14:31:18;1.00;;;0.70;;
12585;SDS011;6358;50.760;0.282;2023-07-31T14:33:44;1.90;;;1.10;;
12585;SDS011;6358;50.760;0.282;2023-07-31T14:36:10;1.13;;;0.80;;
12585;SDS011;6358;50.760;0.282;2023-07-31T14:38:36;1.52;;;0.82;;
12585;SDS011;6358;50.760;0.282;2023-07-31T14:41:02;1.60;;;0.95;;
12585;SDS011;6358;50.760;0.282;2023-07-31T14:43:28;1.85;;;1.00;;
12585;SDS011;6358;50.760;0.282;2023-07-31T14:45:54;1.23;;;0.90;;
12585;SDS011;6358;50.760;0.282;2023-07-31T14:48:24;0.73;;;0.70;;
12585;SDS011;6358;50.760;0.282;2023-07-31T14:50:50;1.15;;;0.75;;
12585;SDS011;6358;50.760;0.282;2023-07-31T14:53:16;3.45;;;1.00;;
12585;SDS011;6358;50.760;0.282;2023-07-31T14:55:42;2.90;;;1.10;;
12585;SDS011;6358;50.760;0.282;2023-07-31T14:58:09;1.77;;;0.88;;
12585;SDS011;6358;50.760;0.282;2023-07-31T15:00:36;2.40;;;0.82;;
12585;SDS011;6358;50.760;0.282;2023-07-31T15:03:02;1.23;;;0.65;;
12585;SDS011;6358;50.760;0.282;2023-07-31T15:05:28;1.17;;;0.98;;